Time;durP1;ratioP1;P1;durP2;ratioP2;P2;SDS_P1;SDS_P2;PMS_P1;PMS_P2;Temp;Humidity;BMP_temperature;BMP_pressure;BME280_temperature;BME280_humidity;BME280_pressure;Samples;Min_cycle;Max_cycle;Signal;HPM_P1;HPM_P2
2022/06/06 00:03:36;;;;;;;13.20;10.75;;;;;;;;;;4281682;81;28534;-84
2022/06/06 00:09:37;;;;;;;15.25;10.03;;;;;;;;;;4300090;81;28535;-84
2022/06/06 00:15:39;;;;;;;12.95;10.00;;;;;;;;;;4261722;81;28556;-84
2022/06/06 00:21:41;;;;;;;12.68;10.53;;;;;;;;;;4309520;81;28518;-84
2022/06/06 00:27:42;;;;;;;13.13;10.35;;;;;;;;;;4292163;81;28520;-84
2022/06/06 00:40:04;;;;;;;11.22;8.28;;;;;;;;;;4280545;81;28563;-84
2022/06/06 00:46:08;;;;;;;11.63;8.88;;;;;;;;;;4293978;81;28540;-84
2022/06/06 00:52:13;;;;;;;14.60;9.50;;;;;;;;;;4320838;81;28549;-83
2022/06/06 00:58:18;;;;;;;12.90;9.83;;;;;;;;;;4283284;81;28520;-83
2022/06/06 01:04:21;;;;;;;14.85;8.90;;;;;;;;;;4282124;81;28544;-83
2022/06/06 01:10:22;;;;;;;11.95;8.45;;;;;;;;;;4286221;81;28516;-84
2022/06/06 01:16:30;;;;;;;14.93;9.88;;;;;;;;;;4290274;82;28544;-84
2022/06/06 01:22:56;;;;;;;14.25;10.53;;;;;;;;;;4328108;81;28581;-84
2022/06/06 01:29:05;;;;;;;;;;;;;;;;;;4294716;81;28553;-84
2022/06/06 01:35:08;;;;;;;10.80;8.55;;;;;;;;;;4337310;81;20194;-84
2022/06/06 01:41:12;;;;;;;12.50;8.53;;;;;;;;;;4291271;81;28493;-84
2022/06/06 01:47:16;;;;;;;13.18;8.30;;;;;;;;;;4332995;80;28536;-84
2022/06/06 01:53:21;;;;;;;14.38;11.15;;;;;;;;;;4364843;80;28492;-85
2022/06/06 01:59:22;;;;;;;16.65;12.00;;;;;;;;;;4294438;81;28565;-85
2022/06/06 02:05:23;;;;;;;14.47;11.65;;;;;;;;;;4286015;81;28666;-85
2022/06/06 02:11:24;;;;;;;13.78;10.35;;;;;;;;;;4348363;80;28493;-85
2022/06/06 02:17:26;;;;;;;11.18;8.73;;;;;;;;;;4291222;82;28519;-86
2022/06/06 02:23:27;;;;;;;19.25;12.93;;;;;;;;;;4354799;80;28519;-85
2022/06/06 02:29:29;;;;;;;17.95;12.82;;;;;;;;;;4352581;80;28540;-85
2022/06/06 02:35:36;;;;;;;18.15;12.58;;;;;;;;;;4315802;81;28551;-86
2022/06/06 02:41:38;;;;;;;22.42;14.58;;;;;;;;;;4299734;81;28516;-85
2022/06/06 02:47:39;;;;;;;24.12;15.90;;;;;;;;;;4340479;81;28468;-85
2022/06/06 02:53:41;;;;;;;24.75;17.20;;;;;;;;;;4323552;81;28529;-85
2022/06/06 02:59:46;;;;;;;24.35;16.37;;;;;;;;;;4369903;80;28505;-84
2022/06/06 03:05:53;;;;;;;19.73;13.13;;;;;;;;;;4373618;80;28519;-82
2022/06/06 03:12:07;;;;;;;16.30;12.13;;;;;;;;;;4369045;80;28446;-83
2022/06/06 03:25:08;;;;;;;15.72;10.90;;;;;;;;;;4252980;81;29183;-82
2022/06/06 03:31:25;;;;;;;15.00;10.90;;;;;;;;;;4310832;81;28558;-87
2022/06/06 03:37:39;;;;;;;14.75;10.50;;;;;;;;;;4319266;80;28561;-85
2022/06/06 03:43:55;;;;;;;15.65;11.50;;;;;;;;;;4294365;81;28463;-85
2022/06/06 03:50:17;;;;;;;15.43;10.65;;;;;;;;;;4279712;82;28526;-86
2022/06/06 03:56:28;;;;;;;14.30;10.32;;;;;;;;;;4248802;81;28520;-85
2022/06/06 04:02:36;;;;;;;12.60;9.78;;;;;;;;;;4285510;81;28531;-82
2022/06/06 04:08:37;;;;;;;12.23;9.58;;;;;;;;;;4357211;81;28550;-81
2022/06/06 04:15:03;;;;;;;21.87;17.57;;;;;;;;;;4346982;81;28547;-84
2022/06/06 04:21:25;;;;;;;19.42;13.68;;;;;;;;;;4340191;80;28531;-80
2022/06/06 04:27:41;;;;;;;15.43;11.28;;;;;;;;;;4281722;81;28605;-82
2022/06/06 04:33:46;;;;;;;15.83;11.05;;;;;;;;;;4301309;81;28604;-80
2022/06/06 04:40:08;;;;;;;15.80;11.10;;;;;;;;;;4371196;80;28568;-80
2022/06/06 04:46:27;;;;;;;12.07;9.85;;;;;;;;;;4349643;80;28539;-82
2022/06/06 04:52:30;;;;;;;16.12;11.10;;;;;;;;;;4364514;80;28543;-82
2022/06/06 04:58:34;;;;;;;14.83;10.85;;;;;;;;;;4363417;80;28495;-85
2022/06/06 05:04:35;;;;;;;15.23;10.45;;;;;;;;;;4289526;81;28534;-79
2022/06/06 05:10:52;;;;;;;16.25;11.08;;;;;;;;;;4215836;82;28581;-81
2022/06/06 05:17:06;;;;;;;14.87;10.65;;;;;;;;;;4362048;80;28541;-79
2022/06/06 05:23:14;;;;;;;13.28;9.93;;;;;;;;;;4278047;81;28498;-80
2022/06/06 05:29:31;;;;;;;12.80;9.53;;;;;;;;;;4290682;82;28506;-87
2022/06/06 05:35:52;;;;;;;12.50;9.85;;;;;;;;;;4337264;80;28490;-84
2022/06/06 05:42:06;;;;;;;15.45;9.60;;;;;;;;;;4309756;81;28483;-82
2022/06/06 05:48:35;;;;;;;13.45;9.58;;;;;;;;;;4362491;80;28500;-79
2022/06/06 05:55:12;;;;;;;13.80;9.63;;;;;;;;;;4286290;82;28559;-79
2022/06/06 06:01:32;;;;;;;11.43;8.53;;;;;;;;;;4297972;80;28509;-79
2022/06/06 06:07:52;;;;;;;13.22;9.40;;;;;;;;;;4325813;80;28467;-78
2022/06/06 06:14:09;;;;;;;12.45;8.35;;;;;;;;;;4276516;81;28941;-78
2022/06/06 06:20:17;;;;;;;10.18;7.83;;;;;;;;;;4272528;82;28566;-79
2022/06/06 06:26:19;;;;;;;13.28;8.20;;;;;;;;;;4278943;82;28504;-79
2022/06/06 06:32:44;;;;;;;9.83;8.30;;;;;;;;;;4337854;80;28478;-79
2022/06/06 06:39:06;;;;;;;14.43;7.87;;;;;;;;;;4287051;81;28545;-79
2022/06/06 06:45:13;;;;;;;11.33;7.72;;;;;;;;;;4301429;82;28576;-79
2022/06/06 06:51:24;;;;;;;10.93;7.80;;;;;;;;;;4260510;82;28526;-79
2022/06/06 06:57:58;;;;;;;11.43;8.23;;;;;;;;;;4290030;81;28545;-78
2022/06/06 07:10:48;;;;;;;16.83;8.27;;;;;;;;;;4362867;80;28562;-79
2022/06/06 07:16:57;;;;;;;10.95;8.10;;;;;;;;;;4362035;80;28585;-79
2022/06/06 07:23:11;;;;;;;10.23;7.40;;;;;;;;;;4357638;80;28530;-79
2022/06/06 07:29:18;;;;;;;10.72;6.87;;;;;;;;;;4361797;80;28492;-79
2022/06/06 07:35:39;;;;;;;8.83;6.72;;;;;;;;;;4343347;81;28461;-79
2022/06/06 07:41:59;;;;;;;7.08;6.05;;;;;;;;;;4381679;80;28483;-79
2022/06/06 07:48:16;;;;;;;8.75;5.75;;;;;;;;;;4288786;81;28565;-79
2022/06/06 07:54:45;;;;;;;7.53;5.80;;;;;;;;;;4291070;81;28550;-79
2022/06/06 08:00:50;;;;;;;11.22;6.87;;;;;;;;;;4271680;81;28547;-79
2022/06/06 08:07:04;;;;;;;8.37;6.20;;;;;;;;;;4265343;81;28511;-78
2022/06/06 08:13:42;;;;;;;8.10;5.80;;;;;;;;;;4275527;81;28535;-77
2022/06/06 08:20:10;;;;;;;8.08;5.75;;;;;;;;;;4362058;80;28582;-77
2022/06/06 08:26:12;;;;;;;8.10;5.80;;;;;;;;;;4354276;80;28535;-77
2022/06/06 08:32:14;;;;;;;8.35;5.65;;;;;;;;;;4353994;81;28535;-78
2022/06/06 08:38:22;;;;;;;6.65;5.50;;;;;;;;;;4300901;81;28534;-78
2022/06/06 08:44:47;;;;;;;9.43;5.85;;;;;;;;;;4360568;80;28527;-78
2022/06/06 08:50:58;;;;;;;8.60;5.87;;;;;;;;;;4283995;82;28517;-77
2022/06/06 08:57:19;;;;;;;7.90;5.17;;;;;;;;;;4289641;81;28491;-78
2022/06/06 09:03:38;;;;;;;6.30;4.80;;;;;;;;;;4287271;81;28984;-78
2022/06/06 09:09:52;;;;;;;7.53;5.10;;;;;;;;;;4271511;81;28565;-77
2022/06/06 09:16:33;;;;;;;6.95;4.65;;;;;;;;;;4289465;81;28580;-78
2022/06/06 09:23:01;;;;;;;9.53;5.12;;;;;;;;;;4276610;82;28651;-79
2022/06/06 09:29:22;;;;;;;7.05;4.70;;;;;;;;;;4328052;80;28561;-80
2022/06/06 09:35:55;;;;;;;9.35;5.45;;;;;;;;;;4305234;81;28483;-81
2022/06/06 09:42:08;;;;;;;5.58;4.42;;;;;;;;;;4308697;81;28552;-80
2022/06/06 09:48:30;;;;;;;6.30;4.20;;;;;;;;;;4283139;81;28547;-81
2022/06/06 10:01:28;;;;;;;5.87;4.35;;;;;;;;;;4352589;80;28674;-81
2022/06/06 10:08:06;;;;;;;5.42;4.30;;;;;;;;;;4350683;80;28523;-81
2022/06/06 10:14:20;;;;;;;5.72;4.33;;;;;;;;;;4359096;80;28508;-80
2022/06/06 10:20:28;;;;;;;5.83;5.03;;;;;;;;;;4355103;80;28522;-80
2022/06/06 10:26:39;;;;;;;7.22;5.10;;;;;;;;;;4278091;81;28510;-79
2022/06/06 10:33:04;;;;;;;5.70;5.10;;;;;;;;;;4329958;80;28505;-79
2022/06/06 10:39:43;;;;;;;6.40;4.90;;;;;;;;;;4267055;82;28512;-79
2022/06/06 10:45:48;;;;;;;5.70;4.92;;;;;;;;;;4281925;82;28538;-80
2022/06/06 10:52:14;;;;;;;5.62;5.12;;;;;;;;;;4349336;81;28573;-79
2022/06/06 10:58:33;;;;;;;7.45;5.00;;;;;;;;;;4277083;83;28610;-79
2022/06/06 11:05:00;;;;;;;7.67;5.30;;;;;;;;;;4275595;83;28537;-79
2022/06/06 11:11:26;;;;;;;5.60;4.92;;;;;;;;;;4269806;82;28590;-78
2022/06/06 11:17:31;;;;;;;5.20;4.70;;;;;;;;;;4219572;83;28593;-79
2022/06/06 11:23:51;;;;;;;5.20;4.17;;;;;;;;;;4261065;82;28519;-79
2022/06/06 11:30:12;;;;;;;4.67;4.25;;;;;;;;;;4265944;82;28474;-80
2022/06/06 11:36:33;;;;;;;5.95;4.22;;;;;;;;;;4253139;82;28881;-80
2022/06/06 11:43:01;;;;;;;5.83;4.00;;;;;;;;;;4251478;82;28497;-80
2022/06/06 11:49:32;;;;;;;4.45;4.03;;;;;;;;;;4254704;82;28507;-80
2022/06/06 11:56:10;;;;;;;4.40;4.00;;;;;;;;;;4295370;81;28517;-80
2022/06/06 12:02:50;;;;;;;5.05;4.00;;;;;;;;;;4313528;81;28538;-80
2022/06/06 12:09:16;;;;;;;4.78;3.87;;;;;;;;;;4305208;81;28497;-80
2022/06/06 12:15:34;;;;;;;;;;;;;;;;;;4321164;81;28574;-80
2022/06/06 12:22:15;;;;;;;3.70;3.40;;;;;;;;;;4294170;81;20252;-79
2022/06/06 12:28:40;;;;;;;4.28;3.42;;;;;;;;;;4317068;81;28593;-80
2022/06/06 12:34:47;;;;;;;3.70;3.30;;;;;;;;;;4369545;79;28571;-78
2022/06/06 12:41:04;;;;;;;3.55;3.22;;;;;;;;;;4321601;82;28921;-78
2022/06/06 12:47:34;;;;;;;4.40;3.30;;;;;;;;;;4321859;81;28532;-80
2022/06/06 12:53:58;;;;;;;4.40;3.67;;;;;;;;;;4324976;81;28505;-81
2022/06/06 13:00:05;;;;;;;3.67;3.33;;;;;;;;;;4377909;81;28486;-81
2022/06/06 13:06:32;;;;;;;6.25;3.83;;;;;;;;;;4326053;81;28536;-82
2022/06/06 13:13:06;;;;;;;3.80;3.50;;;;;;;;;;4307535;81;28554;-82
2022/06/06 13:19:43;;;;;;;4.45;3.25;;;;;;;;;;4340633;81;28519;-81
2022/06/06 13:25:53;;;;;;;4.58;3.70;;;;;;;;;;4326019;81;28514;-81
2022/06/06 13:32:10;;;;;;;3.77;3.47;;;;;;;;;;4319586;81;28572;-83
2022/06/06 13:38:36;;;;;;;3.70;3.40;;;;;;;;;;4334613;81;28587;-84
2022/06/06 13:45:13;;;;;;;4.15;3.62;;;;;;;;;;4314046;81;28577;-80
2022/06/06 13:51:24;;;;;;;4.33;3.65;;;;;;;;;;4304316;81;28521;-86
2022/06/06 13:57:30;;;;;;;4.42;3.35;;;;;;;;;;4238888;82;28549;-83
2022/06/06 14:03:58;;;;;;;3.72;3.42;;;;;;;;;;4269805;82;28507;-85
2022/06/06 14:10:05;;;;;;;3.67;3.10;;;;;;;;;;4276270;82;28526;-83
2022/06/06 14:16:28;;;;;;;4.05;3.25;;;;;;;;;;4281024;82;28503;-82
2022/06/06 14:22:30;;;;;;;4.40;3.05;;;;;;;;;;4236817;82;28543;-82
2022/06/06 14:28:39;;;;;;;4.75;3.10;;;;;;;;;;4259659;81;28643;-85
2022/06/06 14:34:49;;;;;;;5.72;3.25;;;;;;;;;;4250544;82;28558;-82
2022/06/06 14:40:54;;;;;;;3.80;2.90;;;;;;;;;;4308313;81;28547;-85
2022/06/06 14:47:08;;;;;;;3.40;2.90;;;;;;;;;;4235151;82;28526;-85
2022/06/06 14:53:17;;;;;;;3.80;3.00;;;;;;;;;;4241659;82;28535;-85
2022/06/06 14:59:42;;;;;;;5.80;3.60;;;;;;;;;;4297683;81;28524;-85
2022/06/06 15:05:43;;;;;;;4.85;3.22;;;;;;;;;;4282010;81;28592;-86
2022/06/06 15:11:45;;;;;;;4.33;3.05;;;;;;;;;;4277354;81;28594;-85
2022/06/06 15:17:50;;;;;;;2.70;2.50;;;;;;;;;;4332434;81;28582;-85
2022/06/06 15:24:01;;;;;;;2.98;2.67;;;;;;;;;;4274388;81;28530;-85
2022/06/06 15:30:22;;;;;;;4.75;2.92;;;;;;;;;;4353863;80;28536;-86
2022/06/06 15:36:33;;;;;;;4.00;3.05;;;;;;;;;;4262563;82;28534;-85
2022/06/06 15:42:56;;;;;;;9.83;6.22;;;;;;;;;;4348647;80;28531;-85
2022/06/06 15:49:06;;;;;;;8.38;6.00;;;;;;;;;;4214654;82;28486;-83
2022/06/06 15:55:32;;;;;;;16.17;5.75;;;;;;;;;;4268757;81;28534;-81
2022/06/06 16:01:49;;;;;;;8.48;5.17;;;;;;;;;;4271022;83;28521;-82
2022/06/06 16:08:09;;;;;;;8.78;5.30;;;;;;;;;;4323846;81;28522;-81
2022/06/06 16:14:30;;;;;;;7.67;4.75;;;;;;;;;;4283317;82;28569;-78
2022/06/06 16:20:36;;;;;;;6.97;4.35;;;;;;;;;;4367142;80;28478;-80
2022/06/06 16:26:43;;;;;;;5.80;3.73;;;;;;;;;;4360055;80;28476;-85
2022/06/06 16:32:58;;;;;;;5.85;3.45;;;;;;;;;;4289465;81;28518;-84
2022/06/06 16:39:03;;;;;;;6.75;4.55;;;;;;;;;;4339489;81;28516;-89
2022/06/06 16:51:56;;;;;;;4.80;3.72;;;;;;;;;;4297070;81;28508;-83
2022/06/06 16:58:10;;;;;;;5.12;3.45;;;;;;;;;;4256151;82;28521;-81
2022/06/06 17:04:15;;;;;;;3.47;3.15;;;;;;;;;;4357585;80;28572;-80
2022/06/06 17:10:38;;;;;;;4.15;3.05;;;;;;;;;;4350276;80;28566;-82
2022/06/06 17:17:07;;;;;;;5.33;3.12;;;;;;;;;;4344479;82;28563;-84
2022/06/06 17:23:24;;;;;;;6.00;3.22;;;;;;;;;;4274672;83;28512;-85
2022/06/06 17:29:29;;;;;;;5.75;3.58;;;;;;;;;;4273715;83;28499;-82
2022/06/06 17:35:37;;;;;;;5.55;2.90;;;;;;;;;;4280648;82;28723;-84
2022/06/06 17:41:41;;;;;;;6.35;3.47;;;;;;;;;;4344063;80;28522;-82
2022/06/06 17:48:09;;;;;;;3.70;2.92;;;;;;;;;;4369266;80;28490;-84
2022/06/06 17:54:26;;;;;;;4.92;2.80;;;;;;;;;;4355020;80;28545;-85
2022/06/06 18:00:49;;;;;;;4.70;3.00;;;;;;;;;;4292864;81;28984;-85
2022/06/06 18:07:23;;;;;;;5.87;3.10;;;;;;;;;;4310897;81;28550;-84
2022/06/06 18:13:52;;;;;;;4.97;3.00;;;;;;;;;;4276003;82;28520;-86
2022/06/06 18:19:54;;;;;;;5.70;2.83;;;;;;;;;;4324465;80;28460;-85
2022/06/06 18:26:00;;;;;;;5.90;3.40;;;;;;;;;;4313378;81;28501;-87
2022/06/06 18:32:04;;;;;;;6.72;3.30;;;;;;;;;;4318694;81;28502;-85
2022/06/06 18:38:19;;;;;;;6.70;3.53;;;;;;;;;;4283249;82;28523;-82
2022/06/06 18:44:24;;;;;;;6.62;3.55;;;;;;;;;;4275728;81;28494;-90
2022/06/06 18:50:35;;;;;;;7.42;3.92;;;;;;;;;;4294463;81;28527;-87
2022/06/06 18:56:58;;;;;;;8.20;3.92;;;;;;;;;;4293357;82;28495;-91
2022/06/06 19:03:05;;;;;;;6.50;3.42;;;;;;;;;;4345226;81;28549;-93
2022/06/06 19:09:26;;;;;;;7.90;3.45;;;;;;;;;;4367175;80;28568;-89
2022/06/06 19:15:38;;;;;;;6.35;3.55;;;;;;;;;;4351648;80;28536;-85
2022/06/06 19:21:44;;;;;;;7.50;3.37;;;;;;;;;;4363116;80;28457;-92
2022/06/06 19:27:50;;;;;;;18.27;3.95;;;;;;;;;;4345980;80;28691;-87
2022/06/06 19:34:05;;;;;;;6.25;3.55;;;;;;;;;;4332306;80;28529;-85
2022/06/06 19:40:19;;;;;;;5.45;3.58;;;;;;;;;;4354187;80;28535;-86
2022/06/06 19:46:26;;;;;;;6.95;4.10;;;;;;;;;;4368990;80;28498;-86
2022/06/06 19:52:32;;;;;;;6.83;3.70;;;;;;;;;;4333039;80;28556;-81
2022/06/06 19:58:36;;;;;;;9.05;3.92;;;;;;;;;;4328447;80;28493;-80
2022/06/06 20:04:39;;;;;;;7.22;4.10;;;;;;;;;;4336997;80;28543;-78
2022/06/06 20:10:41;;;;;;;8.88;4.28;;;;;;;;;;4259060;81;28519;-81
2022/06/06 20:16:42;;;;;;;7.30;4.08;;;;;;;;;;4337501;80;28494;-81
2022/06/06 20:22:53;;;;;;;7.00;4.50;;;;;;;;;;4245368;82;28534;-81
2022/06/06 20:29:01;;;;;;;9.18;4.45;;;;;;;;;;4336638;80;28612;-83
2022/06/06 20:35:19;;;;;;;8.65;4.35;;;;;;;;;;4350611;80;28549;-82
2022/06/06 20:41:24;;;;;;;8.35;4.55;;;;;;;;;;4346261;80;28512;-83
2022/06/06 20:47:28;;;;;;;6.72;4.40;;;;;;;;;;4356959;80;28548;-82
2022/06/06 20:53:35;;;;;;;8.08;4.97;;;;;;;;;;4336426;80;28500;-82
2022/06/06 20:59:36;;;;;;;8.55;5.10;;;;;;;;;;4344325;80;28520;-82
2022/06/06 21:05:44;;;;;;;8.60;5.22;;;;;;;;;;4354058;80;28532;-82
2022/06/06 21:11:48;;;;;;;6.95;4.58;;;;;;;;;;4340831;80;28456;-83
2022/06/06 21:17:50;;;;;;;6.72;4.75;;;;;;;;;;4343534;80;28470;-84
2022/06/06 21:23:52;;;;;;;9.48;5.53;;;;;;;;;;4316127;80;28536;-82
2022/06/06 21:29:53;;;;;;;8.23;5.00;;;;;;;;;;4349020;80;28486;-82
2022/06/06 21:35:56;;;;;;;9.88;4.97;;;;;;;;;;4363292;80;28473;-84
2022/06/06 21:41:59;;;;;;;9.08;5.35;;;;;;;;;;4352128;80;28570;-81
2022/06/06 21:48:00;;;;;;;7.35;4.70;;;;;;;;;;4325426;80;28550;-81
2022/06/06 21:54:09;;;;;;;7.50;5.10;;;;;;;;;;4356285;80;28519;-82
2022/06/06 22:00:17;;;;;;;6.15;4.92;;;;;;;;;;4252350;82;28499;-82
2022/06/06 22:06:19;;;;;;;9.68;5.90;;;;;;;;;;4254834;82;28562;-80
2022/06/06 22:12:22;;;;;;;8.20;5.62;;;;;;;;;;4283684;81;28522;-79
2022/06/06 22:18:23;;;;;;;9.53;5.60;;;;;;;;;;4270543;81;28514;-80
2022/06/06 22:24:24;;;;;;;9.30;6.22;;;;;;;;;;4368720;80;28536;-80
2022/06/06 22:30:25;;;;;;;7.28;5.45;;;;;;;;;;4257618;81;28552;-79
2022/06/06 22:36:28;;;;;;;8.20;5.55;;;;;;;;;;4348240;80;28521;-79
2022/06/06 22:42:29;;;;;;;11.03;5.97;;;;;;;;;;4288400;81;28525;-79
2022/06/06 22:48:30;;;;;;;8.73;5.87;;;;;;;;;;4286433;81;28518;-80
2022/06/06 22:54:35;;;;;;;9.85;6.47;;;;;;;;;;4287759;81;28520;-81
2022/06/06 23:00:34;;;;;;;8.63;5.67;;;;;;;;;;4300918;81;28540;-79
2022/06/06 23:06:35;;;;;;;11.38;7.10;;;;;;;;;;4216781;82;28506;-80
2022/06/06 23:12:36;;;;;;;9.98;6.35;;;;;;;;;;4287456;81;28530;-82
2022/06/06 23:18:39;;;;;;;9.63;6.67;;;;;;;;;;4285102;81;28526;-81
2022/06/06 23:24:40;;;;;;;10.98;7.03;;;;;;;;;;4281059;81;28521;-81
2022/06/06 23:30:41;;;;;;;11.43;6.95;;;;;;;;;;4261790;81;28577;-81
2022/06/06 23:36:54;;;;;;;11.25;7.22;;;;;;;;;;4282020;81;28518;-81
2022/06/06 23:43:00;;;;;;;12.30;7.70;;;;;;;;;;4337879;80;28526;-82
2022/06/06 23:49:08;;;;;;;12.40;7.33;;;;;;;;;;4360188;80;28548;-80
2022/06/06 23:55:11;;;;;;;13.08;7.45;;;;;;;;;;4268192;82;28519;-81
